createdAt,value
2018-12-09T00:00:50.140Z,0
2018-12-09T00:02:00.087Z,0
2018-12-09T00:03:10.023Z,0
2018-12-09T00:04:19.713Z,0
2018-12-09T00:05:29.663Z,0
2018-12-09T00:06:39.379Z,0
2018-12-09T00:07:49.317Z,0
2018-12-09T00:08:58.761Z,0
2018-12-09T00:10:08.720Z,0
2018-12-09T00:11:18.655Z,0
2018-12-09T00:12:28.586Z,0
2018-12-09T00:13:38.272Z,0
2018-12-09T00:14:48.205Z,0
2018-12-09T00:15:57.894Z,0
2018-12-09T00:17:07.837Z,0
2018-12-09T00:18:17.546Z,0
2018-12-09T00:19:27.234Z,0
2018-12-09T00:20:37.036Z,0
2018-12-09T00:21:46.968Z,0
2018-12-09T00:22:56.495Z,0
2018-12-09T00:24:06.434Z,0
2018-12-09T00:25:15.868Z,0
2018-12-09T00:26:25.546Z,0
2018-12-09T00:27:35.501Z,0
2018-12-09T00:28:45.049Z,0
2018-12-09T00:29:54.998Z,0
2018-12-09T00:31:04.686Z,0
2018-12-09T00:32:14.632Z,0
2018-12-09T00:33:24.946Z,0
2018-12-09T00:34:34.894Z,0
2018-12-09T00:35:44.837Z,0
2018-12-09T00:36:54.767Z,0
2018-12-09T00:38:04.710Z,0
2018-12-09T00:39:14.630Z,0
2018-12-09T00:40:24.575Z,0
2018-12-09T00:41:34.030Z,0
2018-12-09T00:42:50.984Z,0
2018-12-09T00:44:00.927Z,0
2018-12-09T00:45:10.615Z,0
2018-12-09T00:46:20.547Z,0
2018-12-09T00:47:30.218Z,0
2018-12-09T00:48:40.177Z,0
2018-12-09T00:49:50.110Z,0
2018-12-09T00:51:00.061Z,0
2018-12-09T00:52:10.018Z,0
2018-12-09T00:53:19.707Z,0
2018-12-09T00:54:29.773Z,0
2018-12-09T00:55:39.468Z,0
2018-12-09T00:56:49.151Z,0
2018-12-09T00:57:58.843Z,0
2018-12-09T00:59:08.524Z,0
2018-12-09T01:00:18.211Z,0
2018-12-09T01:01:28.147Z,0
2018-12-09T01:02:38.080Z,0
2018-12-09T01:03:48.018Z,0
2018-12-09T01:04:57.728Z,0
2018-12-09T01:06:07.431Z,0
2018-12-09T01:07:17.388Z,0
2018-12-09T01:08:27.327Z,0
2018-12-09T01:09:37.023Z,0
2018-12-09T01:10:46.965Z,0
2018-12-09T01:11:56.910Z,0
2018-12-09T01:13:06.611Z,0
2018-12-09T01:14:16.558Z,0
2018-12-09T01:15:26.492Z,0
2018-12-09T01:16:36.177Z,0
2018-12-09T01:17:45.624Z,0
2018-12-09T01:18:55.582Z,0
2018-12-09T01:20:05.525Z,0
2018-12-09T01:21:14.953Z,0
2018-12-09T01:22:24.914Z,0
2018-12-09T01:23:34.601Z,0
2018-12-09T01:24:44.308Z,0
2018-12-09T01:25:54.021Z,0
2018-12-09T01:27:03.723Z,0
2018-12-09T01:28:13.431Z,0
2018-12-09T01:29:23.144Z,0
2018-12-09T01:30:33.110Z,0
2018-12-09T01:31:42.562Z,0
2018-12-09T01:32:52.280Z,0
2018-12-09T01:34:02.765Z,0
2018-12-09T01:35:13.462Z,0
2018-12-09T01:36:23.862Z,0
2018-12-09T01:37:33.833Z,0
2018-12-09T01:38:43.777Z,0
2018-12-09T01:39:53.522Z,0
2018-12-09T01:41:03.239Z,0
2018-12-09T01:42:12.963Z,0
2018-12-09T01:43:22.920Z,0
2018-12-09T01:44:32.908Z,0
2018-12-09T01:45:42.726Z,0
2018-12-09T01:46:52.439Z,0
2018-12-09T01:48:01.900Z,0
2018-12-09T01:49:11.615Z,0
2018-12-09T01:50:21.347Z,0
2018-12-09T01:51:31.317Z,0
2018-12-09T01:52:41.291Z,0
2018-12-09T01:53:51.256Z,0
2018-12-09T01:55:01.209Z,0
2018-12-09T01:56:11.180Z,0
2018-12-09T01:57:21.131Z,0
2018-12-09T01:58:30.927Z,0
2018-12-09T01:59:41.649Z,0
2018-12-09T02:00:51.846Z,0
2018-12-09T02:02:01.985Z,0
2018-12-09T02:03:11.967Z,0
2018-12-09T02:04:21.676Z,0
2018-12-09T02:05:31.139Z,0
2018-12-09T02:06:41.103Z,0
2018-12-09T02:07:51.055Z,0
2018-12-09T02:09:01.029Z,0
2018-12-09T02:10:10.996Z,0
2018-12-09T02:11:20.962Z,0
2018-12-09T02:12:30.423Z,0
2018-12-09T02:13:40.146Z,0
2018-12-09T02:14:50.121Z,0
2018-12-09T02:15:59.586Z,0
2018-12-09T02:17:09.304Z,0
2018-12-09T02:18:19.260Z,0
2018-12-09T02:19:28.979Z,0
2018-12-09T02:20:38.942Z,0
2018-12-09T02:21:48.917Z,0
2018-12-09T02:22:58.861Z,0
2018-12-09T02:24:09.665Z,0
2018-12-09T02:25:19.960Z,0
2018-12-09T02:26:30.184Z,0
2018-12-09T02:27:40.153Z,0
2018-12-09T02:28:50.158Z,0
2018-12-09T02:29:59.878Z,0
2018-12-09T02:31:09.861Z,0
2018-12-09T02:32:19.591Z,0
2018-12-09T02:33:29.302Z,0
2018-12-09T02:34:39.022Z,0
2018-12-09T02:35:49.019Z,0
2018-12-09T02:36:58.985Z,0
2018-12-09T02:38:08.444Z,0
2018-12-09T02:39:18.399Z,0
2018-12-09T02:40:28.370Z,0
2018-12-09T02:41:38.328Z,0
2018-12-09T02:42:48.036Z,0
2018-12-09T02:43:57.758Z,0
2018-12-09T02:45:07.475Z,0
2018-12-09T02:46:16.953Z,0
2018-12-09T02:47:26.914Z,0
2018-12-09T02:48:37.607Z,0
2018-12-09T02:49:48.393Z,0
2018-12-09T02:50:58.673Z,0
2018-12-09T02:52:07.881Z,0
2018-12-09T02:53:17.856Z,0
2018-12-09T02:54:27.593Z,0
2018-12-09T02:55:36.576Z,0
2018-12-09T02:56:46.342Z,0
2018-12-09T02:57:56.088Z,0
2018-12-09T02:59:05.802Z,0
2018-12-09T03:00:15.772Z,0
2018-12-09T03:01:25.750Z,0
2018-12-09T03:02:35.716Z,0
2018-12-09T03:03:45.679Z,0
2018-12-09T03:04:55.404Z,0
2018-12-09T03:06:05.361Z,0
2018-12-09T03:07:15.334Z,0
2018-12-09T03:08:25.313Z,0
2018-12-09T03:09:34.827Z,0
2018-12-09T03:10:44.804Z,0
2018-12-09T03:11:54.518Z,0
2018-12-09T03:13:04.489Z,0
2018-12-09T03:14:14.971Z,0
2018-12-09T03:15:25.903Z,0
2018-12-09T03:16:36.406Z,0
2018-12-09T03:17:46.262Z,0
2018-12-09T03:18:56.218Z,0
2018-12-09T03:20:06.174Z,0
2018-12-09T03:21:16.124Z,0
2018-12-09T03:22:26.113Z,0
2018-12-09T03:23:36.080Z,0
2018-12-09T03:24:46.055Z,0
2018-12-09T03:25:55.782Z,0
2018-12-09T03:27:05.516Z,0
2018-12-09T03:28:15.232Z,0
2018-12-09T03:29:25.210Z,0
2018-12-09T03:30:34.953Z,0
2018-12-09T03:31:44.954Z,0
2018-12-09T03:32:54.950Z,0
2018-12-09T03:34:04.674Z,0
2018-12-09T03:35:14.415Z,0
2018-12-09T03:36:24.128Z,0
2018-12-09T03:37:33.852Z,0
2018-12-09T03:38:44.029Z,0
2018-12-09T03:39:54.479Z,0
2018-12-09T03:41:05.400Z,0
2018-12-09T03:42:15.434Z,0
2018-12-09T03:43:25.131Z,0
2018-12-09T03:44:35.224Z,0
2018-12-09T03:45:46.113Z,0
2018-12-09T03:46:56.082Z,0
2018-12-09T03:48:06.053Z,0
2018-12-09T03:49:16.019Z,0
2018-12-09T03:50:25.740Z,0
2018-12-09T03:51:35.443Z,0
2018-12-09T03:52:45.410Z,0
2018-12-09T03:53:55.139Z,0
2018-12-09T03:55:04.857Z,0
2018-12-09T03:56:14.874Z,0
2018-12-09T03:57:24.594Z,0
2018-12-09T03:58:34.652Z,0
2018-12-09T03:59:44.620Z,0
2018-12-09T04:00:54.342Z,0
2018-12-09T04:02:04.317Z,0
2018-12-09T04:03:14.081Z,0
2018-12-09T04:04:24.050Z,0
2018-12-09T04:05:34.012Z,0
2018-12-09T04:06:44.297Z,0
2018-12-09T04:07:55.234Z,0
2018-12-09T04:09:05.491Z,0
2018-12-09T04:10:15.774Z,0
2018-12-09T04:11:25.764Z,0
2018-12-09T04:12:35.731Z,0
2018-12-09T04:13:45.213Z,0
2018-12-09T04:14:55.190Z,0
2018-12-09T04:16:05.168Z,0
2018-12-09T04:17:15.139Z,0
2018-12-09T04:18:24.889Z,0
2018-12-09T04:19:34.604Z,0
2018-12-09T04:20:44.573Z,0
2018-12-09T04:21:54.287Z,0
2018-12-09T04:23:03.782Z,0
2018-12-09T04:24:13.499Z,0
2018-12-09T04:25:23.529Z,0
2018-12-09T04:26:33.474Z,0
2018-12-09T04:27:43.595Z,0
2018-12-09T04:28:53.306Z,0
2018-12-09T04:30:03.071Z,0
2018-12-09T04:31:12.776Z,0
2018-12-09T04:32:22.502Z,0
2018-12-09T04:33:32.459Z,0
2018-12-09T04:34:42.973Z,0
2018-12-09T04:35:53.773Z,0
2018-12-09T04:37:03.656Z,0
2018-12-09T04:38:13.587Z,0
2018-12-09T04:39:23.315Z,0
2018-12-09T04:40:33.310Z,0
2018-12-09T04:41:43.023Z,0
2018-12-09T04:42:52.979Z,0
2018-12-09T04:44:02.699Z,0
2018-12-09T04:45:12.680Z,0
2018-12-09T04:46:22.644Z,0
2018-12-09T04:47:32.621Z,0
2018-12-09T04:48:42.577Z,0
2018-12-09T04:49:52.543Z,0
2018-12-09T04:51:02.521Z,0
2018-12-09T04:52:12.488Z,0
2018-12-09T04:53:22.457Z,0
2018-12-09T04:54:32.183Z,0
2018-12-09T04:55:41.915Z,0
2018-12-09T04:56:51.878Z,0
2018-12-09T04:58:01.583Z,0
2018-12-09T04:59:11.306Z,0
2018-12-09T05:00:21.269Z,0
2018-12-09T05:01:31.878Z,0
2018-12-09T05:02:42.450Z,0
2018-12-09T05:03:52.706Z,0
2018-12-09T05:05:02.701Z,0
2018-12-09T05:06:12.665Z,0
2018-12-09T05:07:22.623Z,0
2018-12-09T05:08:32.686Z,0
2018-12-09T05:09:42.405Z,0
2018-12-09T05:10:52.393Z,0
2018-12-09T05:12:01.849Z,0
2018-12-09T05:13:11.560Z,0
2018-12-09T05:14:21.562Z,0
2018-12-09T05:15:31.267Z,0
2018-12-09T05:16:41.264Z,0
2018-12-09T05:17:50.975Z,0
2018-12-09T05:19:00.690Z,0
2018-12-09T05:20:10.648Z,0
2018-12-09T05:21:20.615Z,0
2018-12-09T05:22:30.574Z,0
2018-12-09T05:23:40.292Z,0
2018-12-09T05:24:50.009Z,0
2018-12-09T05:25:59.732Z,0
2018-12-09T05:27:09.720Z,0
2018-12-09T05:28:19.185Z,0
2018-12-09T05:29:29.155Z,0
2018-12-09T05:30:40.163Z,0
2018-12-09T05:31:50.646Z,0
2018-12-09T05:33:01.188Z,0
2018-12-09T05:34:11.072Z,0
2018-12-09T05:35:21.039Z,0
2018-12-09T05:36:31.011Z,0
2018-12-09T05:37:40.978Z,0
2018-12-09T05:38:50.944Z,0
2018-12-09T05:40:00.675Z,0
2018-12-09T05:41:10.625Z,0
2018-12-09T05:42:20.360Z,0
2018-12-09T05:43:30.540Z,0
2018-12-09T05:44:39.847Z,0
2018-12-09T05:45:49.554Z,0
2018-12-09T05:46:59.528Z,0
2018-12-09T05:48:09.236Z,0
2018-12-09T05:49:19.191Z,0
2018-12-09T05:50:28.642Z,0
2018-12-09T05:51:38.613Z,0
2018-12-09T05:52:48.338Z,0
2018-12-09T05:53:58.064Z,0
2018-12-09T05:55:08.027Z,0
2018-12-09T05:56:17.503Z,0
2018-12-09T05:57:27.208Z,0
2018-12-09T05:58:37.174Z,0
2018-12-09T05:59:47.781Z,0
2018-12-09T06:00:58.423Z,0
2018-12-09T06:02:08.601Z,0
2018-12-09T06:03:18.730Z,0
2018-12-09T06:04:28.456Z,0
2018-12-09T06:05:38.420Z,0
2018-12-09T06:06:49.387Z,0
2018-12-09T06:07:59.115Z,0
2018-12-09T06:09:08.841Z,0
2018-12-09T06:10:18.805Z,0
2018-12-09T06:11:28.768Z,0
2018-12-09T06:12:38.743Z,0
2018-12-09T06:13:48.458Z,0
2018-12-09T06:14:58.167Z,0
2018-12-09T06:16:08.144Z,0
2018-12-09T06:17:17.871Z,0
2018-12-09T06:18:27.849Z,0
2018-12-09T06:19:37.793Z,0
2018-12-09T06:20:47.764Z,0
2018-12-09T06:21:57.493Z,0
2018-12-09T06:23:07.463Z,0
2018-12-09T06:24:16.914Z,0
2018-12-09T06:25:26.775Z,0
2018-12-09T06:26:36.744Z,0
2018-12-09T06:27:47.099Z,0
2018-12-09T06:28:57.648Z,0
2018-12-09T06:30:08.203Z,0
2018-12-09T06:31:18.325Z,0
2018-12-09T06:32:28.495Z,0
2018-12-09T06:33:38.257Z,0
2018-12-09T06:34:48.242Z,0
2018-12-09T06:35:57.977Z,0
2018-12-09T06:37:07.680Z,0
2018-12-09T06:38:17.741Z,0
2018-12-09T06:39:27.707Z,0
2018-12-09T06:40:37.439Z,0
2018-12-09T06:41:47.389Z,0
2018-12-09T06:42:57.356Z,0
2018-12-09T06:44:07.072Z,0
2018-12-09T06:45:16.776Z,0
2018-12-09T06:46:26.492Z,0
2018-12-09T06:47:36.203Z,0
2018-12-09T06:48:46.179Z,0
2018-12-09T06:49:56.151Z,0
2018-12-09T06:51:05.606Z,0
2018-12-09T06:52:15.588Z,0
2018-12-09T06:53:25.567Z,0
2018-12-09T06:54:35.528Z,0
2018-12-09T06:55:45.492Z,0
2018-12-09T06:56:55.198Z,0
2018-12-09T06:58:04.919Z,0
2018-12-09T06:59:15.241Z,0
2018-12-09T07:00:25.909Z,0
2018-12-09T07:01:38.237Z,0
2018-12-09T07:02:48.176Z,0
2018-12-09T07:03:58.141Z,0
2018-12-09T07:05:07.881Z,0
2018-12-09T07:06:17.609Z,0
2018-12-09T07:07:27.709Z,0
2018-12-09T07:08:37.705Z,0
2018-12-09T07:09:47.707Z,0
2018-12-09T07:10:57.427Z,5
2018-12-09T07:12:07.397Z,5
2018-12-09T07:13:17.347Z,5
2018-12-09T07:14:27.059Z,5
2018-12-09T07:15:36.778Z,5
2018-12-09T07:16:46.757Z,5
2018-12-09T07:17:58.512Z,5
2018-12-09T07:19:07.987Z,5
2018-12-09T07:20:17.954Z,5
2018-12-09T07:21:27.689Z,5
2018-12-09T07:22:37.658Z,5
2018-12-09T07:23:47.625Z,10
2018-12-09T07:24:57.698Z,10
2018-12-09T07:26:07.167Z,10
2018-12-09T07:27:17.137Z,10
2018-12-09T07:28:26.841Z,10
2018-12-09T07:29:36.872Z,15
2018-12-09T07:30:47.651Z,15
2018-12-09T07:31:57.891Z,20
2018-12-09T07:33:07.883Z,20
2018-12-09T07:34:17.532Z,20
2018-12-09T07:35:27.529Z,20
2018-12-09T07:36:37.262Z,20
2018-12-09T07:37:47.224Z,15
2018-12-09T07:38:57.184Z,15
2018-12-09T07:40:06.663Z,15
2018-12-09T07:41:15.861Z,20
2018-12-09T07:42:25.816Z,25
2018-12-09T07:43:35.780Z,25
2018-12-09T07:44:45.757Z,30
2018-12-09T07:45:55.723Z,30
2018-12-09T07:47:05.680Z,35
2018-12-09T07:48:15.397Z,35
2018-12-09T07:49:25.371Z,45
2018-12-09T07:50:35.345Z,45
2018-12-09T07:51:45.286Z,40
2018-12-09T07:52:55.701Z,35
2018-12-09T07:54:05.632Z,35
2018-12-09T07:55:15.078Z,30
2018-12-09T07:56:25.025Z,30
2018-12-09T07:57:34.718Z,25
2018-12-09T07:58:44.408Z,20
2018-12-09T07:59:54.339Z,20
2018-12-09T08:01:04.389Z,20
2018-12-09T08:02:14.345Z,20
2018-12-09T08:03:24.381Z,15
2018-12-09T08:04:34.073Z,20
2018-12-09T08:05:44.015Z,20
2018-12-09T08:06:53.955Z,20
2018-12-09T08:08:03.887Z,20
2018-12-09T08:09:13.829Z,25
2018-12-09T08:10:23.890Z,20
2018-12-09T08:11:33.828Z,20
2018-12-09T08:12:43.778Z,25
2018-12-09T08:13:53.725Z,30
2018-12-09T08:15:03.650Z,40
2018-12-09T08:16:13.392Z,40
2018-12-09T08:17:23.118Z,50
2018-12-09T08:18:33.061Z,45
2018-12-09T08:19:42.750Z,45
2018-12-09T08:20:52.452Z,45
2018-12-09T08:22:02.405Z,40
2018-12-09T08:23:12.357Z,50
2018-12-09T08:24:22.315Z,50
2018-12-09T08:25:32.259Z,45
2018-12-09T08:26:42.199Z,40
2018-12-09T08:27:52.150Z,45
2018-12-09T08:29:01.845Z,35
2018-12-09T08:30:11.793Z,30
2018-12-09T08:31:21.483Z,30
2018-12-09T08:32:31.159Z,30
2018-12-09T08:33:41.138Z,35
2018-12-09T08:34:50.831Z,35
2018-12-09T08:36:00.769Z,35
2018-12-09T08:37:10.708Z,40
2018-12-09T08:38:20.412Z,35
2018-12-09T08:39:30.108Z,40
2018-12-09T08:40:40.042Z,45
2018-12-09T08:41:49.985Z,65
2018-12-09T08:42:59.667Z,85
2018-12-09T08:44:09.351Z,100
2018-12-09T08:45:19.297Z,115
2018-12-09T08:46:29.346Z,115
2018-12-09T08:47:39.286Z,75
2018-12-09T08:48:49.247Z,50
2018-12-09T08:49:58.924Z,55
2018-12-09T08:51:08.967Z,65
2018-12-09T08:52:18.404Z,60
2018-12-09T08:53:28.097Z,60
2018-12-09T08:54:37.814Z,80
2018-12-09T08:55:47.758Z,75
2018-12-09T08:56:57.707Z,80
2018-12-09T08:58:07.393Z,75
2018-12-09T08:59:16.840Z,70
2018-12-09T09:00:26.282Z,75
2018-12-09T09:01:36.024Z,90
2018-12-09T09:02:45.762Z,100
2018-12-09T09:03:55.706Z,125
2018-12-09T09:05:05.411Z,140
2018-12-09T09:06:15.114Z,125
2018-12-09T09:07:25.063Z,105
2018-12-09T09:08:35.088Z,100
2018-12-09T09:09:45.025Z,90
2018-12-09T09:10:54.967Z,85
2018-12-09T09:12:04.654Z,90
2018-12-09T09:13:14.587Z,110
2018-12-09T09:14:24.513Z,130
2018-12-09T09:15:34.463Z,150
2018-12-09T09:16:44.507Z,175
2018-12-09T09:17:54.200Z,190
2018-12-09T09:19:04.142Z,195
2018-12-09T09:20:13.879Z,210
2018-12-09T09:21:23.589Z,230
2018-12-09T09:22:33.528Z,210
2018-12-09T09:23:43.223Z,210
2018-12-09T09:24:53.173Z,250
2018-12-09T09:26:02.990Z,280
2018-12-09T09:27:12.682Z,250
2018-12-09T09:28:22.621Z,245
2018-12-09T09:29:32.313Z,250
2018-12-09T09:30:41.768Z,195
2018-12-09T09:31:51.465Z,145
2018-12-09T09:33:01.463Z,140
2018-12-09T09:34:11.169Z,140
2018-12-09T09:35:21.122Z,125
2018-12-09T09:36:31.061Z,125
2018-12-09T09:37:41.026Z,130
2018-12-09T09:38:50.969Z,125
2018-12-09T09:40:00.906Z,125
2018-12-09T09:41:10.848Z,120
2018-12-09T09:42:20.546Z,120
2018-12-09T09:43:30.499Z,100
2018-12-09T09:44:41.103Z,90
2018-12-09T09:45:50.865Z,90
2018-12-09T09:47:00.559Z,75
2018-12-09T09:48:10.242Z,80
2018-12-09T09:49:20.192Z,80
2018-12-09T09:50:29.912Z,90
2018-12-09T09:51:39.606Z,125
2018-12-09T09:52:49.314Z,105
2018-12-09T09:53:59.199Z,100
2018-12-09T09:55:09.006Z,75
2018-12-09T09:56:18.955Z,65
2018-12-09T09:57:28.676Z,65
2018-12-09T09:58:38.376Z,70
2018-12-09T09:59:48.300Z,70
2018-12-09T10:00:57.989Z,100
2018-12-09T10:02:07.942Z,140
2018-12-09T10:03:25.652Z,140
2018-12-09T10:04:35.758Z,140
2018-12-09T10:05:45.685Z,180
2018-12-09T10:06:55.373Z,205
2018-12-09T10:08:05.055Z,210
2018-12-09T10:09:14.515Z,195
2018-12-09T10:10:24.457Z,170
2018-12-09T10:11:34.390Z,200
2018-12-09T10:12:44.107Z,220
2018-12-09T10:13:53.799Z,230
2018-12-09T10:15:03.485Z,200
2018-12-09T10:16:13.454Z,180
2018-12-09T10:17:23.404Z,170
2018-12-09T10:18:33.097Z,180
2018-12-09T10:19:42.787Z,180
2018-12-09T10:20:52.238Z,155
2018-12-09T10:22:02.175Z,180
2018-12-09T10:23:12.129Z,170
2018-12-09T10:24:21.839Z,175
2018-12-09T10:25:31.781Z,180
2018-12-09T10:26:46.170Z,175
2018-12-09T10:27:55.874Z,195
2018-12-09T10:29:05.807Z,220
2018-12-09T10:30:15.763Z,160
2018-12-09T10:31:25.457Z,155
2018-12-09T10:32:35.403Z,175
2018-12-09T10:33:45.372Z,200
2018-12-09T10:34:55.324Z,235
2018-12-09T10:36:05.259Z,270
2018-12-09T10:37:15.191Z,255
2018-12-09T10:38:24.901Z,270
2018-12-09T10:39:34.853Z,270
2018-12-09T10:40:44.550Z,250
2018-12-09T10:41:54.491Z,215
2018-12-09T10:43:04.442Z,180
2018-12-09T10:44:14.252Z,205
2018-12-09T10:45:24.211Z,250
2018-12-09T10:46:34.185Z,290
2018-12-09T10:47:44.177Z,305
2018-12-09T10:48:53.870Z,340
2018-12-09T10:50:03.937Z,385
2018-12-09T10:51:13.874Z,300
2018-12-09T10:52:23.349Z,205
2018-12-09T10:53:33.049Z,165
2018-12-09T10:54:43.006Z,150
2018-12-09T10:55:52.970Z,205
2018-12-09T10:57:02.747Z,200
2018-12-09T10:58:12.688Z,195
2018-12-09T10:59:22.367Z,190
2018-12-09T11:00:32.051Z,250
2018-12-09T11:01:41.751Z,295
2018-12-09T11:02:51.700Z,285
2018-12-09T11:04:01.671Z,290
2018-12-09T11:05:11.632Z,320
2018-12-09T11:06:21.594Z,265
2018-12-09T11:07:31.551Z,230
2018-12-09T11:08:41.503Z,255
2018-12-09T11:09:51.207Z,300
2018-12-09T11:11:00.919Z,335
2018-12-09T11:12:10.845Z,375
2018-12-09T11:13:20.536Z,325
2018-12-09T11:14:30.297Z,220
2018-12-09T11:15:39.995Z,260
2018-12-09T11:16:49.938Z,170
2018-12-09T11:17:59.628Z,125
2018-12-09T11:19:09.571Z,120
2018-12-09T11:20:19.513Z,105
2018-12-09T11:21:37.668Z,100
2018-12-09T11:22:47.641Z,85
2018-12-09T11:23:57.562Z,75
2018-12-09T11:25:07.532Z,105
2018-12-09T11:26:17.464Z,120
2018-12-09T11:27:27.418Z,85
2018-12-09T11:28:37.327Z,70
2018-12-09T11:29:47.270Z,55
2018-12-09T11:30:56.968Z,50
2018-12-09T11:32:06.717Z,45
2018-12-09T11:33:16.667Z,35
2018-12-09T11:34:26.458Z,40
2018-12-09T11:35:36.415Z,40
2018-12-09T11:36:46.359Z,55
2018-12-09T11:37:56.324Z,80
2018-12-09T11:39:06.275Z,75
2018-12-09T11:40:15.979Z,80
2018-12-09T11:41:25.438Z,135
2018-12-09T11:42:35.375Z,285
2018-12-09T11:43:45.337Z,215
2018-12-09T11:44:55.285Z,155
2018-12-09T11:46:05.896Z,145
2018-12-09T11:47:15.844Z,150
2018-12-09T11:48:25.793Z,170
2018-12-09T11:49:35.490Z,190
2018-12-09T11:50:45.200Z,200
2018-12-09T11:51:54.905Z,205
2018-12-09T11:53:04.348Z,220
2018-12-09T11:54:14.319Z,220
2018-12-09T11:55:24.269Z,230
2018-12-09T11:56:33.983Z,225
2018-12-09T11:57:43.927Z,210
2018-12-09T11:58:53.366Z,185
2018-12-09T12:00:03.061Z,175
2018-12-09T12:01:12.517Z,170
2018-12-09T12:02:29.609Z,160
2018-12-09T12:03:39.548Z,145
2018-12-09T12:04:49.494Z,130
2018-12-09T12:05:59.432Z,110
2018-12-09T12:07:09.386Z,105
2018-12-09T12:08:19.081Z,105
2018-12-09T12:09:29.028Z,105
2018-12-09T12:10:38.827Z,110
2018-12-09T12:11:48.523Z,115
2018-12-09T12:12:58.560Z,105
2018-12-09T12:14:08.513Z,120
2018-12-09T12:15:18.225Z,105
2018-12-09T12:16:28.181Z,105
2018-12-09T12:17:37.892Z,115
2018-12-09T12:18:47.855Z,120
2018-12-09T12:19:57.842Z,135
2018-12-09T12:21:07.533Z,150
2018-12-09T12:22:17.472Z,180
2018-12-09T12:23:27.428Z,155
2018-12-09T12:24:37.383Z,130
2018-12-09T12:25:47.324Z,125
2018-12-09T12:26:57.032Z,95
2018-12-09T12:28:06.976Z,80
2018-12-09T12:29:17.040Z,90
2018-12-09T12:30:28.643Z,100
2018-12-09T12:31:38.589Z,110
2018-12-09T12:32:48.297Z,110
2018-12-09T12:33:58.007Z,115
2018-12-09T12:35:07.953Z,125
2018-12-09T12:36:17.648Z,120
2018-12-09T12:37:27.598Z,120
2018-12-09T12:38:37.273Z,100
2018-12-09T12:39:46.730Z,95
2018-12-09T12:40:56.181Z,80
2018-12-09T12:42:05.712Z,75
2018-12-09T12:43:15.657Z,80
2018-12-09T12:44:25.344Z,90
2018-12-09T12:45:35.294Z,85
2018-12-09T12:46:45.361Z,80
2018-12-09T12:47:57.397Z,85
2018-12-09T12:49:07.091Z,85
2018-12-09T12:50:17.028Z,85
2018-12-09T12:51:26.978Z,75
2018-12-09T12:52:36.423Z,65
2018-12-09T12:53:46.113Z,55
2018-12-09T12:54:56.153Z,60
2018-12-09T12:56:06.121Z,105
2018-12-09T12:57:15.799Z,105
2018-12-09T12:58:25.872Z,115
2018-12-09T12:59:35.569Z,115
2018-12-09T13:00:45.282Z,130
2018-12-09T13:01:54.725Z,135
2018-12-09T13:03:04.658Z,130
2018-12-09T13:04:14.368Z,130
2018-12-09T13:05:24.079Z,130
2018-12-09T13:06:34.023Z,120
2018-12-09T13:07:43.728Z,110
2018-12-09T13:08:53.667Z,100
2018-12-09T13:10:03.623Z,115
2018-12-09T13:11:13.574Z,130
2018-12-09T13:12:23.280Z,120
2018-12-09T13:13:32.745Z,115
2018-12-09T13:14:42.688Z,110
2018-12-09T13:15:52.381Z,100
2018-12-09T13:17:02.311Z,90
2018-12-09T13:18:12.254Z,90
2018-12-09T13:19:22.222Z,75
2018-12-09T13:20:32.184Z,65
2018-12-09T13:21:41.880Z,60
2018-12-09T13:22:51.826Z,60
2018-12-09T13:24:01.739Z,65
2018-12-09T13:25:11.773Z,75
2018-12-09T13:26:21.719Z,75
2018-12-09T13:27:31.143Z,75
2018-12-09T13:28:40.862Z,70
2018-12-09T13:29:50.801Z,55
2018-12-09T13:31:00.248Z,50
2018-12-09T13:32:10.193Z,45
2018-12-09T13:33:19.884Z,35
2018-12-09T13:34:29.582Z,35
2018-12-09T13:35:39.609Z,35
2018-12-09T13:36:49.550Z,45
2018-12-09T13:37:59.240Z,45
2018-12-09T13:39:09.180Z,35
2018-12-09T13:40:18.877Z,40
2018-12-09T13:41:28.818Z,45
2018-12-09T13:42:38.763Z,50
2018-12-09T13:43:48.718Z,50
2018-12-09T13:44:58.663Z,50
2018-12-09T13:46:08.627Z,50
2018-12-09T13:47:18.580Z,50
2018-12-09T13:48:28.697Z,55
2018-12-09T13:49:38.408Z,55
2018-12-09T13:50:48.093Z,55
2018-12-09T13:51:59.864Z,55
2018-12-09T13:53:09.807Z,55
2018-12-09T13:54:19.512Z,55
2018-12-09T13:55:29.466Z,60
2018-12-09T13:56:39.170Z,60
2018-12-09T13:57:49.106Z,60
2018-12-09T13:58:59.067Z,60
2018-12-09T14:00:09.030Z,55
2018-12-09T14:01:18.978Z,50
2018-12-09T14:02:28.677Z,50
2018-12-09T14:03:38.379Z,45
2018-12-09T14:04:48.081Z,40
2018-12-09T14:05:57.524Z,40
2018-12-09T14:07:07.248Z,35
2018-12-09T14:08:16.941Z,30
2018-12-09T14:09:26.898Z,20
2018-12-09T14:10:36.860Z,20
2018-12-09T14:11:46.833Z,25
2018-12-09T14:12:56.837Z,30
2018-12-09T14:14:06.839Z,35
2018-12-09T14:15:16.782Z,35
2018-12-09T14:16:26.933Z,25
2018-12-09T14:17:36.665Z,25
2018-12-09T14:18:48.026Z,30
2018-12-09T14:19:57.967Z,30
2018-12-09T14:21:08.134Z,25
2018-12-09T14:22:18.252Z,20
2018-12-09T14:23:27.998Z,20
2018-12-09T14:24:37.978Z,20
2018-12-09T14:25:47.920Z,15
2018-12-09T14:26:57.619Z,15
2018-12-09T14:28:07.074Z,15
2018-12-09T14:29:16.841Z,15
2018-12-09T14:30:26.580Z,15
2018-12-09T14:31:36.605Z,15
2018-12-09T14:32:46.564Z,15
2018-12-09T14:33:56.278Z,15
2018-12-09T14:35:06.053Z,15
2018-12-09T14:36:16.031Z,15
2018-12-09T14:37:26.042Z,10
2018-12-09T14:38:36.041Z,5
2018-12-09T14:39:45.484Z,10
2018-12-09T14:40:54.933Z,10
2018-12-09T14:42:04.640Z,10
2018-12-09T14:43:14.346Z,10
2018-12-09T14:44:24.033Z,10
2018-12-09T14:45:33.727Z,5
2018-12-09T14:46:43.410Z,5
2018-12-09T14:47:53.101Z,5
2018-12-09T14:49:03.038Z,5
2018-12-09T14:50:13.463Z,5
2018-12-09T14:51:23.414Z,5
2018-12-09T14:52:32.350Z,5
2018-12-09T14:53:42.295Z,5
2018-12-09T14:54:51.988Z,5
2018-12-09T14:56:01.950Z,0
2018-12-09T14:57:11.643Z,0
2018-12-09T14:58:21.576Z,0
2018-12-09T14:59:31.286Z,0
2018-12-09T15:00:41.224Z,0
2018-12-09T15:01:51.179Z,0
2018-12-09T15:03:01.101Z,0
2018-12-09T15:04:11.048Z,0
2018-12-09T15:05:20.756Z,0
2018-12-09T15:06:32.763Z,0
2018-12-09T15:07:42.724Z,0
2018-12-09T15:08:52.766Z,0
2018-12-09T15:10:10.882Z,0
2018-12-09T15:11:20.840Z,0
2018-12-09T15:12:30.808Z,0
2018-12-09T15:13:40.746Z,0
2018-12-09T15:14:50.428Z,0
2018-12-09T15:16:00.122Z,0
2018-12-09T15:17:09.552Z,0
2018-12-09T15:18:19.240Z,0
2018-12-09T15:19:29.191Z,0
2018-12-09T15:20:38.874Z,0
2018-12-09T15:21:48.812Z,0
2018-12-09T15:22:58.508Z,0
2018-12-09T15:24:08.449Z,0
2018-12-09T15:25:18.486Z,0
2018-12-09T15:26:28.463Z,0
2018-12-09T15:27:38.411Z,0
2018-12-09T15:28:48.362Z,0
2018-12-09T15:29:58.307Z,0
2018-12-09T15:31:08.003Z,0
2018-12-09T15:32:17.945Z,0
2018-12-09T15:33:27.661Z,0
2018-12-09T15:34:37.356Z,0
2018-12-09T15:35:47.290Z,0
2018-12-09T15:36:57.213Z,0
2018-12-09T15:38:06.894Z,0
2018-12-09T15:39:16.835Z,0
2018-12-09T15:40:28.814Z,0
2018-12-09T15:41:38.779Z,0
2018-12-09T15:42:48.226Z,0
2018-12-09T15:43:57.920Z,0
2018-12-09T15:45:07.609Z,0
2018-12-09T15:46:17.288Z,0
2018-12-09T15:47:27.235Z,0
2018-12-09T15:48:37.177Z,0
2018-12-09T15:49:47.126Z,0
2018-12-09T15:50:57.129Z,0
2018-12-09T15:52:07.071Z,0
2018-12-09T15:53:16.763Z,0
2018-12-09T15:54:26.457Z,0
2018-12-09T15:55:36.405Z,0
2018-12-09T15:56:46.340Z,0
2018-12-09T15:57:56.145Z,0
2018-12-09T15:59:06.225Z,0
2018-12-09T16:00:16.010Z,0
2018-12-09T16:01:25.951Z,0
2018-12-09T16:02:35.639Z,0
2018-12-09T16:03:45.331Z,0
2018-12-09T16:04:55.041Z,0
2018-12-09T16:06:04.741Z,0
2018-12-09T16:07:14.798Z,0
2018-12-09T16:08:24.756Z,0
2018-12-09T16:09:34.709Z,0
2018-12-09T16:10:44.660Z,0
2018-12-09T16:11:54.379Z,0
2018-12-09T16:13:04.346Z,0
2018-12-09T16:14:14.046Z,0
2018-12-09T16:15:24.000Z,0
2018-12-09T16:16:33.949Z,0
2018-12-09T16:17:43.391Z,0
2018-12-09T16:18:53.338Z,0
2018-12-09T16:20:03.282Z,0
2018-12-09T16:21:12.977Z,0
2018-12-09T16:22:22.928Z,0
2018-12-09T16:23:32.917Z,0
2018-12-09T16:24:42.867Z,0
2018-12-09T16:25:52.563Z,0
2018-12-09T16:27:02.519Z,0
2018-12-09T16:28:12.445Z,0
2018-12-09T16:29:22.804Z,0
2018-12-09T16:30:32.503Z,0
2018-12-09T16:31:42.193Z,0
2018-12-09T16:32:51.883Z,0
2018-12-09T16:34:01.580Z,0
2018-12-09T16:35:11.285Z,0
2018-12-09T16:36:20.999Z,0
2018-12-09T16:37:30.695Z,0
2018-12-09T16:38:40.389Z,0
2018-12-09T16:39:50.091Z,0
2018-12-09T16:41:00.053Z,0
2018-12-09T16:42:10.017Z,0
2018-12-09T16:43:21.391Z,0
2018-12-09T16:44:31.354Z,0
2018-12-09T16:45:41.036Z,0
2018-12-09T16:46:51.094Z,0
2018-12-09T16:48:01.053Z,0
2018-12-09T16:49:11.006Z,0
2018-12-09T16:50:20.952Z,0